Time;durP1;ratioP1;P1;durP2;ratioP2;P2;SDS_P1;SDS_P2;PMS_P1;PMS_P2;Temp;Humidity;BMP_temperature;BMP_pressure;BME280_temperature;BME280_humidity;BME280_pressure;Samples;Min_cycle;Max_cycle;Signal;HPM_P1;HPM_P2
2021/12/05 00:24:01;;;;;;;13.43;3.10;;;0.60;99.90;196.50;224877.00;;;;4995922;28;20190;-87
2021/12/05 00:26:50;;;;;;;7.67;1.90;;;0.60;99.90;196.50;224877.00;;;;4979733;28;20194;-89
2021/12/05 00:47:09;;;;;;;6.70;2.10;;;0.30;99.90;196.50;224877.00;;;;5026141;22;20230;-85
2021/12/05 01:16:02;;;;;;;8.07;1.87;;;0.60;1.00;196.50;224877.00;;;;4995127;28;20280;-88
2021/12/05 01:18:29;;;;;;;7.50;1.60;;;0.60;1.00;196.50;224877.00;;;;4978270;28;20190;-92
2021/12/05 01:21:07;;;;;;;7.30;1.63;;;0.50;1.00;196.50;224877.00;;;;4979033;28;20185;-90
2021/12/05 01:23:49;;;;;;;7.73;1.60;;;0.50;1.00;196.50;224877.00;;;;4963154;28;20185;-89
2021/12/05 01:26:25;;;;;;;5.93;1.80;;;0.50;1.00;196.50;224877.00;;;;4962595;28;20256;-89
2021/12/05 01:29:42;;;;;;;7.87;1.77;;;0.50;17.00;196.50;224877.00;;;;4962724;28;20232;-90
2021/12/05 01:37:04;;;;;;;5.97;1.47;;;0.50;23.20;196.50;224877.00;;;;4980194;28;20179;-89
2021/12/05 01:53:54;;;;;;;8.53;1.87;;;0.40;38.10;196.50;224877.00;;;;4978681;28;20202;-90
2021/12/05 02:34:37;;;;;;;6.27;1.20;;;0.70;1.00;196.50;224877.00;;;;4960348;28;20273;-91
2021/12/05 02:39:47;;;;;;;6.33;1.70;;;0.70;1.00;196.50;224877.00;;;;4961258;28;20748;-90
2021/12/05 02:42:31;;;;;;;7.27;1.23;;;0.70;1.00;196.50;224877.00;;;;4945162;28;20732;-92
2021/12/05 02:45:00;;;;;;;5.03;1.50;;;0.70;1.00;196.50;224877.00;;;;4945318;28;20240;-92
2021/12/05 02:47:28;;;;;;;3.97;1.40;;;0.60;1.00;196.50;224877.00;;;;4961318;28;20256;-92
2021/12/05 02:50:00;;;;;;;4.83;1.17;;;0.60;1.00;196.50;224877.00;;;;4978064;28;20217;-91
2021/12/05 02:52:37;;;;;;;5.87;1.30;;;0.50;1.00;196.50;224877.00;;;;4961406;28;20201;-92
2021/12/05 02:55:45;;;;;;;4.97;1.57;;;0.50;1.00;196.50;224877.00;;;;4929726;28;20202;-91
2021/12/05 03:03:26;;;;;;;5.53;0.87;;;0.40;99.90;196.50;224877.00;;;;4961279;28;20198;-91
2021/12/05 03:06:05;;;;;;;3.60;1.10;;;0.40;99.90;196.50;224877.00;;;;4961131;28;20253;-90
2021/12/05 03:08:33;;;;;;;2.33;0.90;;;0.40;99.90;196.50;224877.00;;;;4961548;28;20206;-91
2021/12/05 03:11:01;;;;;;;3.40;1.20;;;0.40;99.90;196.50;224877.00;;;;4961115;28;20195;-91
2021/12/05 03:13:29;;;;;;;4.13;1.20;;;0.40;99.90;196.50;224877.00;;;;4945549;28;20198;-91
2021/12/05 03:15:58;;;;;;;4.40;1.20;;;0.40;99.90;196.50;224877.00;;;;4945618;28;20780;-91
2021/12/05 03:18:25;;;;;;;2.83;1.10;;;0.50;99.90;196.50;224877.00;;;;4962572;28;20198;-91
2021/12/05 03:20:55;;;;;;;1.73;0.93;;;0.50;99.90;196.50;224877.00;;;;4962679;28;20253;-91
2021/12/05 03:23:23;;;;;;;6.43;1.70;;;0.50;99.90;196.50;224877.00;;;;4962952;28;20225;-90
2021/12/05 03:25:50;;;;;;;3.27;1.30;;;0.50;99.90;196.50;224877.00;;;;4961340;28;20212;-92
2021/12/05 03:28:17;;;;;;;6.63;1.30;;;0.50;99.90;196.50;224877.00;;;;4945027;28;20205;-90
2021/12/05 03:30:48;;;;;;;4.40;1.07;;;0.50;99.90;196.50;224877.00;;;;4959552;28;20245;-90
2021/12/05 03:33:18;;;;;;;2.97;1.13;;;0.40;99.90;196.50;224877.00;;;;4960357;28;20535;-90
2021/12/05 03:35:45;;;;;;;4.43;1.23;;;0.40;99.90;196.50;224877.00;;;;4960341;28;20737;-90
2021/12/05 03:38:12;;;;;;;3.97;1.33;;;0.30;99.90;196.50;224877.00;;;;4960214;28;20265;-90
2021/12/05 03:40:40;;;;;;;5.83;1.60;;;0.30;99.90;196.50;224877.00;;;;4960040;28;20194;-89
2021/12/05 03:43:14;;;;;;;2.47;0.80;;;0.30;99.90;196.50;224877.00;;;;4959966;28;20194;-90
2021/12/05 03:45:49;;;;;;;4.10;1.27;;;0.30;99.90;196.50;224877.00;;;;4960489;28;20202;-90
2021/12/05 03:48:18;;;;;;;3.20;1.00;;;0.40;99.90;196.50;224877.00;;;;4944508;28;20193;-90
2021/12/05 03:50:47;;;;;;;5.80;1.40;;;0.30;99.90;196.50;224877.00;;;;4944912;28;20199;-90
2021/12/05 03:53:17;;;;;;;3.77;1.00;;;0.40;99.90;196.50;224877.00;;;;4944573;28;20191;-90
2021/12/05 03:55:50;;;;;;;1.90;1.00;;;0.40;99.90;196.50;224877.00;;;;4958801;28;20207;-90
2021/12/05 03:58:19;;;;;;;3.33;0.90;;;0.40;99.90;196.50;224877.00;;;;4943773;28;20708;-91
2021/12/05 04:00:53;;;;;;;1.17;0.63;;;0.30;1.00;196.50;224877.00;;;;4960029;28;20198;-91
2021/12/05 04:03:22;;;;;;;1.97;0.90;;;0.30;1.00;196.50;224877.00;;;;4959591;28;20191;-92
2021/12/05 04:05:50;;;;;;;1.53;0.90;;;0.30;1.00;196.50;224877.00;;;;4944409;28;20206;-91
2021/12/05 04:08:22;;;;;;;2.90;1.00;;;0.30;1.00;196.50;224877.00;;;;4945072;28;20198;-92
2021/12/05 04:10:57;;;;;;;5.53;1.30;;;0.10;1.00;196.50;224877.00;;;;4946111;28;20198;-93
2021/12/05 04:13:32;;;;;;;3.80;0.93;;;0.10;1.00;196.50;224877.00;;;;4929611;28;20565;-92
2021/12/05 04:16:03;;;;;;;4.93;1.23;;;-0.10;1.00;196.50;224877.00;;;;4961667;28;20194;-90
2021/12/05 04:18:31;;;;;;;4.23;0.87;;;-0.10;1.00;196.50;224877.00;;;;4962248;28;20270;-94
2021/12/05 04:21:03;;;;;;;2.87;1.20;;;-0.10;1.00;196.50;224877.00;;;;4929574;28;20202;-90
2021/12/05 04:23:31;;;;;;;1.73;0.93;;;-0.30;1.00;196.50;224877.00;;;;4927964;28;20665;-90
2021/12/05 04:26:00;;;;;;;1.83;0.90;;;-0.50;1.00;196.50;224877.00;;;;4944134;28;20191;-89
2021/12/05 04:28:29;;;;;;;3.70;0.90;;;-0.60;1.00;196.50;224877.00;;;;4960948;28;20666;-91
2021/12/05 04:30:58;;;;;;;4.60;0.97;;;-0.80;1.00;196.50;224877.00;;;;4945092;28;20199;-89
2021/12/05 04:33:25;;;;;;;4.67;1.10;;;-0.90;1.00;196.50;224877.00;;;;4959737;28;20190;-90
2021/12/05 04:35:53;;;;;;;5.53;1.10;;;-1.00;1.00;196.50;224877.00;;;;4960017;28;20223;-90
2021/12/05 04:38:20;;;;;;;1.90;1.30;;;-1.00;1.00;196.50;224877.00;;;;4943754;28;20225;-90
2021/12/05 04:40:49;;;;;;;4.10;1.20;;;-1.10;1.00;196.50;224877.00;;;;4943858;28;20743;-88
2021/12/05 04:43:16;;;;;;;3.63;1.30;;;-1.20;8.40;196.50;224877.00;;;;4959960;28;20213;-89
2021/12/05 04:45:44;;;;;;;6.90;1.57;;;-1.30;21.00;196.50;224877.00;;;;4943290;28;20202;-89
2021/12/05 04:48:12;;;;;;;5.33;1.53;;;-1.40;39.10;196.50;224877.00;;;;4927647;28;20210;-89
2021/12/05 04:50:40;;;;;;;3.13;1.47;;;-1.40;75.80;196.50;224877.00;;;;4943298;28;20218;-90
2021/12/05 04:53:08;;;;;;;4.47;1.33;;;-1.50;99.90;196.50;224877.00;;;;4958997;28;20205;-90
2021/12/05 04:55:36;;;;;;;6.20;1.30;;;-1.50;99.90;196.50;224877.00;;;;4959803;28;20198;-90
2021/12/05 04:58:06;;;;;;;4.53;1.17;;;-1.50;99.90;196.50;224877.00;;;;4960083;28;20297;-91
2021/12/05 05:00:41;;;;;;;5.53;1.20;;;-1.40;99.90;196.50;224877.00;;;;4960464;28;20198;-92
2021/12/05 05:03:11;;;;;;;7.37;1.40;;;-1.30;99.90;196.50;224877.00;;;;4961982;28;20597;-90
2021/12/05 05:05:47;;;;;;;4.90;1.10;;;-1.10;99.90;196.50;224877.00;;;;4948001;28;20562;-91
2021/12/05 05:08:18;;;;;;;1.93;0.90;;;-1.00;99.90;196.50;224877.00;;;;4933587;28;20198;-92
2021/12/05 08:17:41;;;;;;;2.73;1.70;;;1.00;27.30;196.50;224877.00;;;;4953485;28;20314;-91
2021/12/05 08:20:11;;;;;;;3.67;1.60;;;1.30;1.00;196.50;224877.00;;;;4942142;29;20590;-89
2021/12/05 08:22:39;;;;;;;5.43;1.07;;;1.70;1.00;196.50;224877.00;;;;4973042;28;20840;-93
2021/12/05 08:25:12;;;;;;;6.40;1.53;;;1.90;99.90;196.50;224877.00;;;;4941842;29;20196;-90
2021/12/05 08:27:50;;;;;;;3.30;1.30;;;2.20;99.90;196.50;224877.00;;;;4943032;28;20203;-91
2021/12/05 08:30:28;;;;;;;1.77;0.83;;;2.40;1.00;196.50;224877.00;;;;4959306;29;20261;-91
2021/12/05 08:41:13;;;;;;;3.80;1.17;;;1.80;1.00;196.50;224877.00;;;;4975211;28;20254;-92
2021/12/05 08:43:54;;;;;;;2.83;1.10;;;1.60;1.00;196.50;224877.00;;;;4960185;29;20225;-92
2021/12/05 09:38:34;;;;;;;1.97;1.17;;;2.40;1.00;196.50;224877.00;;;;4964256;28;20219;-92
2021/12/05 10:15:41;;;;;;;1.50;1.20;;;2.70;1.00;196.50;224877.00;;;;4960534;28;20214;-87
2021/12/05 10:38:20;;;;;;;4.30;0.80;;;3.30;82.30;196.50;224877.00;;;;4958955;28;20685;-85
2021/12/05 10:41:03;;;;;;;1.73;0.80;;;3.10;99.90;196.50;224877.00;;;;4942324;29;20198;-85
2021/12/05 10:43:33;;;;;;;3.43;1.27;;;3.10;99.90;196.50;224877.00;;;;4958162;29;20199;-84
2021/12/05 10:46:13;;;;;;;2.67;0.63;;;3.00;99.90;196.50;224877.00;;;;4942545;29;20277;-85
2021/12/05 10:48:50;;;;;;;0.63;0.63;;;3.00;99.90;196.50;224877.00;;;;4939208;29;20716;-85
2021/12/05 10:51:27;;;;;;;1.27;0.70;;;2.90;99.90;196.50;224877.00;;;;4951584;28;20278;-86
2021/12/05 10:53:57;;;;;;;1.00;0.63;;;2.80;99.90;196.50;224877.00;;;;4934644;28;20294;-87
2021/12/05 10:56:52;;;;;;;0.90;0.50;;;2.90;99.90;196.50;224877.00;;;;4942626;29;20684;-87
2021/12/05 10:59:26;;;;;;;1.00;0.40;;;3.20;99.90;196.50;224877.00;;;;4924704;29;20196;-85
2021/12/05 11:02:00;;;;;;;0.50;0.50;;;4.30;99.90;196.50;224877.00;;;;4940045;29;20200;-85
2021/12/05 11:04:41;;;;;;;0.70;0.50;;;4.70;1.00;196.50;224877.00;;;;4940422;29;20195;-86
2021/12/05 11:07:21;;;;;;;0.13;0.10;;;4.40;1.00;196.50;224877.00;;;;4943101;29;20207;-86
2021/12/05 11:09:56;;;;;;;0.40;0.40;;;4.00;1.00;196.50;224877.00;;;;4957740;29;20206;-86
2021/12/05 11:12:31;;;;;;;0.73;0.50;;;3.60;1.00;196.50;224877.00;;;;4940992;29;20631;-88
2021/12/05 11:15:10;;;;;;;1.10;1.00;;;3.40;76.20;196.50;224877.00;;;;4959138;29;20194;-86
2021/12/05 11:17:47;;;;;;;0.60;0.60;;;3.10;99.90;196.50;224877.00;;;;4943008;28;20565;-84
2021/12/05 11:20:33;;;;;;;1.70;1.20;;;2.90;99.90;196.50;224877.00;;;;4933114;29;20199;-86
2021/12/05 11:23:00;;;;;;;2.17;1.93;;;2.80;99.90;196.50;224877.00;;;;4939989;29;20203;-86
2021/12/05 11:25:32;;;;;;;1.10;1.00;;;2.80;99.90;196.50;224877.00;;;;4932878;29;20206;-86
2021/12/05 11:28:08;;;;;;;1.60;1.50;;;2.90;99.90;196.50;224877.00;;;;4932383;29;20228;-87
2021/12/05 11:30:40;;;;;;;2.27;1.00;;;3.10;99.90;196.50;224877.00;;;;4950898;28;20226;-86
2021/12/05 11:33:22;;;;;;;2.50;1.57;;;3.40;99.90;196.50;224877.00;;;;4942213;29;20593;-85
2021/12/05 11:35:57;;;;;;;5.50;3.47;;;3.80;79.00;196.50;224877.00;;;;4935548;29;20621;-85
2021/12/05 11:38:29;;;;;;;2.00;1.30;;;4.20;1.00;196.50;224877.00;;;;4941571;29;20282;-86
2021/12/05 11:41:14;;;;;;;1.23;0.47;;;4.20;1.00;196.50;224877.00;;;;4941779;29;20206;-84
2021/12/05 11:43:54;;;;;;;1.77;0.90;;;4.20;1.00;196.50;224877.00;;;;4942154;29;20266;-85
2021/12/05 11:46:36;;;;;;;0.60;0.60;;;4.20;1.00;196.50;224877.00;;;;4940975;29;20203;-85
2021/12/05 11:49:13;;;;;;;1.70;0.93;;;4.10;1.00;196.50;224877.00;;;;4922804;29;20210;-87
2021/12/05 11:51:59;;;;;;;2.93;1.27;;;4.10;1.00;196.50;224877.00;;;;4938748;29;20238;-85
2021/12/05 11:54:46;;;;;;;1.40;1.17;;;4.10;1.00;196.50;224877.00;;;;4906248;29;20602;-85
2021/12/05 11:57:22;;;;;;;6.00;4.03;;;3.90;1.00;196.50;224877.00;;;;4937987;29;20203;-86
2021/12/05 12:00:03;;;;;;;3.70;2.83;;;3.60;1.00;196.50;224877.00;;;;4929422;29;20198;-85
2021/12/05 12:02:40;;;;;;;2.73;2.00;;;3.20;1.00;196.50;224877.00;;;;4933848;29;20217;-85
2021/12/05 12:05:11;;;;;;;1.07;0.93;;;2.90;32.10;196.50;224877.00;;;;4917486;29;20331;-85
2021/12/05 12:07:43;;;;;;;3.40;2.30;;;2.50;99.90;196.50;224877.00;;;;4916891;29;20538;-85
2021/12/05 12:10:30;;;;;;;4.63;2.23;;;2.20;99.90;196.50;224877.00;;;;4918346;29;20220;-85
2021/12/05 12:13:01;;;;;;;4.03;1.93;;;2.20;99.90;196.50;224877.00;;;;4934286;29;20200;-85
2021/12/05 12:15:34;;;;;;;6.10;3.93;;;2.10;99.90;196.50;224877.00;;;;4935318;29;20247;-85
2021/12/05 12:18:13;;;;;;;2.07;0.60;;;2.10;1.00;196.50;224877.00;;;;4919784;29;20215;-85
2021/12/05 12:20:45;;;;;;;0.80;0.57;;;2.20;1.00;196.50;224877.00;;;;4921111;29;20282;-85
2021/12/05 12:23:16;;;;;;;2.10;1.10;;;2.20;99.90;196.50;224877.00;;;;4919873;29;20225;-86
2021/12/05 12:25:53;;;;;;;3.23;2.20;;;2.30;99.90;196.50;224877.00;;;;4918058;29;20204;-85
2021/12/05 12:28:21;;;;;;;1.83;1.73;;;3.30;99.90;196.50;224877.00;;;;4924176;28;20265;-84
2021/12/05 12:30:59;;;;;;;2.80;2.27;;;3.80;1.00;196.50;224877.00;;;;4936623;29;20208;-87
2021/12/05 12:33:40;;;;;;;3.07;2.50;;;3.70;99.90;196.50;224877.00;;;;4968778;28;20264;-84
2021/12/05 12:36:08;;;;;;;4.20;3.30;;;3.60;99.90;196.50;224877.00;;;;4952459;28;20219;-88
2021/12/05 12:38:41;;;;;;;2.40;2.20;;;3.40;99.90;196.50;224877.00;;;;4968493;28;20210;-88
2021/12/05 12:41:22;;;;;;;1.60;1.20;;;3.10;1.00;196.50;224877.00;;;;4951712;28;20258;-85
2021/12/05 12:44:07;;;;;;;2.67;2.13;;;2.90;1.00;196.50;224877.00;;;;4955649;28;20207;-86
2021/12/05 12:46:55;;;;;;;1.03;0.70;;;2.70;1.00;196.50;224877.00;;;;4934829;29;20291;-86
2021/12/05 12:49:37;;;;;;;5.53;4.10;;;2.40;1.00;196.50;224877.00;;;;4943542;28;20290;-86
2021/12/05 12:52:17;;;;;;;5.03;2.83;;;2.20;1.00;196.50;224877.00;;;;4952732;28;20693;-85
2021/12/05 12:54:57;;;;;;;11.23;7.53;;;2.20;1.00;196.50;224877.00;;;;4932808;29;20192;-87
2021/12/05 12:57:32;;;;;;;28.73;15.30;;;2.30;1.00;196.50;224877.00;;;;4964426;28;20203;-86
2021/12/05 13:00:15;;;;;;;3.10;1.80;;;2.40;80.10;196.50;224877.00;;;;4948193;28;20196;-86
2021/12/05 13:11:21;;;;;;;7.67;2.80;;;4.00;99.90;196.50;224877.00;;;;4950921;28;20215;-84
2021/12/05 13:14:05;;;;;;;1.93;1.13;;;4.10;1.00;196.50;224877.00;;;;4950614;28;20206;-83
2021/12/05 13:16:36;;;;;;;3.70;2.10;;;4.80;1.00;196.50;224877.00;;;;4950956;28;20199;-83
2021/12/05 13:19:15;;;;;;;1.27;0.53;;;5.80;99.90;196.50;224877.00;;;;4951228;29;20293;-83
2021/12/05 13:21:50;;;;;;;3.33;1.97;;;6.60;99.90;196.50;224877.00;;;;4950654;28;20202;-82
2021/12/05 13:24:29;;;;;;;0.93;0.60;;;7.30;99.90;196.50;224877.00;;;;4954732;28;20199;-85
2021/12/05 13:27:09;;;;;;;10.67;5.70;;;6.90;1.00;196.50;224877.00;;;;4935226;28;20807;-83
2021/12/05 13:29:51;;;;;;;2.50;1.47;;;6.20;99.90;196.50;224877.00;;;;4939196;29;20214;-85
2021/12/05 13:32:31;;;;;;;3.87;0.70;;;5.30;99.90;196.50;224877.00;;;;4939336;29;20219;-84
2021/12/05 13:35:07;;;;;;;5.53;2.60;;;4.40;1.00;196.50;224877.00;;;;4954764;28;20211;-85
2021/12/05 13:37:48;;;;;;;8.43;5.90;;;3.70;99.90;196.50;224877.00;;;;4939390;29;20191;-84
2021/12/05 13:40:20;;;;;;;2.43;1.53;;;3.50;1.00;196.50;224877.00;;;;4937857;29;20226;-84
2021/12/05 13:43:05;;;;;;;11.97;6.03;;;3.50;1.00;196.50;224877.00;;;;4919873;29;20251;-84
2021/12/05 13:45:43;;;;;;;4.93;3.43;;;4.10;99.90;196.50;224877.00;;;;4935269;29;20623;-83
2021/12/05 13:48:18;;;;;;;3.07;1.73;;;5.30;1.00;196.50;224877.00;;;;4936228;29;20275;-84
2021/12/05 13:50:58;;;;;;;3.20;2.50;;;6.60;1.00;196.50;224877.00;;;;4935144;29;20283;-83
2021/12/05 13:53:35;;;;;;;2.90;1.87;;;7.10;99.90;196.50;224877.00;;;;4935450;29;20234;-83
2021/12/05 13:56:13;;;;;;;3.85;2.10;;;7.70;31.80;196.50;224877.00;;;;4935226;29;20191;-82
2021/12/05 13:58:47;;;;;;;3.38;0.98;;;7.40;1.00;196.50;224877.00;;;;4918990;29;20200;-83
2021/12/05 14:01:35;;;;;;;0.88;0.75;;;7.60;1.00;196.50;224877.00;;;;4935279;29;20190;-83
2021/12/05 14:04:24;;;;;;;16.73;7.47;;;7.90;99.90;196.50;224877.00;;;;4934932;29;20202;-83
2021/12/05 14:07:05;;;;;;;0.88;0.57;;;8.00;1.00;196.50;224877.00;;;;4935420;29;20263;-83
2021/12/05 14:09:47;;;;;;;6.60;3.22;;;7.70;1.00;196.50;224877.00;;;;4919477;29;20203;-82
2021/12/05 14:12:29;;;;;;;2.73;1.67;;;7.20;1.00;196.50;224877.00;;;;4934895;29;20247;-83
2021/12/05 14:15:05;;;;;;;4.73;2.63;;;6.40;99.90;196.50;224877.00;;;;4919752;29;20571;-84
2021/12/05 14:17:40;;;;;;;3.23;2.10;;;5.50;99.90;196.50;224877.00;;;;4919506;29;20203;-85
2021/12/05 14:20:20;;;;;;;2.13;1.10;;;4.70;1.00;196.50;224877.00;;;;4935168;29;20207;-84
2021/12/05 14:22:50;;;;;;;45.47;20.67;;;4.10;97.40;196.50;224877.00;;;;4919153;29;20239;-85
2021/12/05 14:25:21;;;;;;;5.37;3.07;;;3.60;99.90;196.50;224877.00;;;;4935317;29;20208;-86
2021/12/05 14:27:59;;;;;;;3.13;1.20;;;3.10;99.90;196.50;224877.00;;;;4924417;29;20243;-85
2021/12/05 14:30:34;;;;;;;2.30;0.77;;;3.00;1.00;196.50;224877.00;;;;4951039;28;20206;-84
2021/12/05 14:33:03;;;;;;;1.07;0.80;;;2.90;1.00;196.50;224877.00;;;;4944455;28;20202;-86
2021/12/05 14:35:40;;;;;;;1.57;0.70;;;2.90;1.00;196.50;224877.00;;;;4935275;28;20215;-85
2021/12/05 14:38:08;;;;;;;1.10;0.60;;;2.80;44.40;196.50;224877.00;;;;4935293;29;20196;-85
2021/12/05 14:40:37;;;;;;;2.30;0.57;;;2.80;1.00;196.50;224877.00;;;;4941608;28;20203;-84
2021/12/05 14:43:09;;;;;;;1.10;0.50;;;2.70;99.90;196.50;224877.00;;;;4937898;29;20195;-85
2021/12/05 14:45:41;;;;;;;1.27;0.50;;;2.60;99.90;196.50;224877.00;;;;4953954;28;20250;-85
2021/12/05 14:48:15;;;;;;;0.40;0.20;;;2.50;99.90;196.50;224877.00;;;;4936251;29;20195;-85
2021/12/05 14:50:53;;;;;;;0.57;0.40;;;2.30;99.90;196.50;224877.00;;;;4935737;29;20688;-85
2021/12/05 14:53:24;;;;;;;0.60;0.40;;;2.20;99.90;196.50;224877.00;;;;4936322;29;20255;-84
2021/12/05 14:55:58;;;;;;;1.00;0.70;;;2.10;1.00;196.50;224877.00;;;;4945661;29;20207;-85
2021/12/05 14:58:28;;;;;;;2.50;1.00;;;1.90;1.00;196.50;224877.00;;;;4938240;29;20195;-86
2021/12/05 15:00:58;;;;;;;3.90;0.80;;;1.70;42.50;196.50;224877.00;;;;4938087;29;20254;-85
2021/12/05 15:03:29;;;;;;;1.00;0.70;;;1.50;87.90;196.50;224877.00;;;;4937942;29;20199;-86
2021/12/05 15:06:02;;;;;;;2.87;1.33;;;1.30;99.90;196.50;224877.00;;;;4952385;28;20202;-86
2021/12/05 15:08:30;;;;;;;2.43;1.00;;;1.20;99.90;196.50;224877.00;;;;4949870;28;20196;-88
2021/12/05 15:11:04;;;;;;;2.37;1.20;;;1.10;99.90;196.50;224877.00;;;;4952728;29;20744;-89
2021/12/05 15:13:31;;;;;;;5.57;2.17;;;1.00;99.90;196.50;224877.00;;;;4950309;29;20203;-89
2021/12/05 15:16:01;;;;;;;4.43;2.07;;;0.80;99.90;196.50;224877.00;;;;4946466;28;20202;-86
2021/12/05 15:18:32;;;;;;;4.87;1.93;;;0.60;99.90;196.50;224877.00;;;;4929147;29;20206;-89
2021/12/05 15:21:03;;;;;;;2.97;0.80;;;0.50;99.90;196.50;224877.00;;;;4924512;29;20240;-86
2021/12/05 15:23:36;;;;;;;4.83;0.97;;;0.40;1.00;196.50;224877.00;;;;4952746;29;20612;-87
2021/12/05 15:26:06;;;;;;;3.67;0.60;;;0.20;1.00;196.50;224877.00;;;;4927638;29;20685;-85
2021/12/05 15:28:35;;;;;;;1.27;0.73;;;-0.10;1.00;196.50;224877.00;;;;4933977;29;20295;-89
2021/12/05 15:31:04;;;;;;;4.47;0.70;;;-0.30;1.00;196.50;224877.00;;;;4952495;28;20265;-89
2021/12/05 15:33:37;;;;;;;1.83;0.90;;;-0.50;1.00;196.50;224877.00;;;;4953003;28;20274;-84
2021/12/05 15:36:07;;;;;;;5.70;0.90;;;-0.60;77.10;196.50;224877.00;;;;4917715;29;20286;-85
2021/12/05 15:38:35;;;;;;;1.77;0.87;;;-0.80;99.90;196.50;224877.00;;;;4949964;29;20235;-87
2021/12/05 15:41:10;;;;;;;3.80;0.90;;;-0.90;99.90;196.50;224877.00;;;;4951505;29;20314;-85
2021/12/05 15:43:41;;;;;;;4.67;1.03;;;-1.00;99.90;196.50;224877.00;;;;4938567;29;20191;-87
2021/12/05 15:46:12;;;;;;;1.63;1.07;;;-1.10;99.90;196.50;224877.00;;;;4937923;29;20229;-85
2021/12/05 15:48:45;;;;;;;4.77;1.37;;;-1.10;99.90;196.50;224877.00;;;;4954404;28;20195;-86
2021/12/05 15:51:13;;;;;;;1.83;0.93;;;-1.10;1.00;196.50;224877.00;;;;4952752;28;20207;-88
2021/12/05 15:53:41;;;;;;;6.43;1.13;;;-1.10;1.00;196.50;224877.00;;;;4937874;29;20207;-88
2021/12/05 15:56:13;;;;;;;3.77;1.23;;;-1.10;1.00;196.50;224877.00;;;;4935642;28;20191;-89
2021/12/05 15:59:00;;;;;;;3.80;1.30;;;-1.10;1.00;196.50;224877.00;;;;4956847;28;20286;-89
2021/12/05 16:01:30;;;;;;;5.07;2.10;;;-1.20;1.00;196.50;224877.00;;;;4939114;29;20626;-89
2021/12/05 16:04:05;;;;;;;4.13;1.80;;;-1.20;1.00;196.50;224877.00;;;;4939636;29;20199;-91
2021/12/05 16:06:40;;;;;;;2.50;1.53;;;-1.20;1.00;196.50;224877.00;;;;4935299;29;20231;-87
2021/12/05 16:09:20;;;;;;;6.77;1.47;;;-1.20;1.00;196.50;224877.00;;;;4921004;29;20710;-88
2021/12/05 16:11:51;;;;;;;3.80;1.50;;;-1.30;1.00;196.50;224877.00;;;;4955493;29;20219;-87
2021/12/05 16:14:31;;;;;;;4.43;1.77;;;-1.40;12.80;196.50;224877.00;;;;4937022;29;20719;-88
2021/12/05 16:17:00;;;;;;;2.80;1.40;;;-1.50;42.20;196.50;224877.00;;;;4955312;29;20199;-86
2021/12/05 16:19:30;;;;;;;6.33;1.60;;;-1.50;72.30;196.50;224877.00;;;;4940386;29;20203;-87
2021/12/05 16:22:17;;;;;;;3.13;1.20;;;-1.60;99.90;196.50;224877.00;;;;4956084;29;20199;-89
2021/12/05 16:24:44;;;;;;;3.47;1.47;;;-1.70;99.90;196.50;224877.00;;;;4940191;29;20203;-89
2021/12/05 16:27:12;;;;;;;2.37;1.00;;;-1.70;99.90;196.50;224877.00;;;;4941286;29;20258;-89
2021/12/05 16:29:41;;;;;;;2.03;1.00;;;-1.70;99.90;196.50;224877.00;;;;4937737;29;20212;-90
2021/12/05 16:35:31;;;;;;;4.57;1.50;;;-1.70;99.90;196.50;224877.00;;;;4949815;29;20226;-90
2021/12/05 16:38:01;;;;;;;3.37;1.20;;;-1.60;99.90;196.50;224877.00;;;;4941183;29;20202;-91
2021/12/05 16:41:18;;;;;;;2.83;1.50;;;-1.60;99.90;196.50;224877.00;;;;4953094;29;20283;-91
2021/12/05 16:44:09;;;;;;;1.33;0.90;;;-1.60;99.90;196.50;224877.00;;;;4937532;29;20231;-88
2021/12/05 16:46:40;;;;;;;2.30;1.20;;;-1.50;99.90;196.50;224877.00;;;;4953992;29;20183;-91
2021/12/05 16:49:14;;;;;;;3.70;1.20;;;-1.50;99.90;196.50;224877.00;;;;4941870;29;20667;-91
2021/12/05 16:56:13;;;;;;;1.43;1.10;;;-1.40;99.90;196.50;224877.00;;;;4960403;29;20235;-91
2021/12/05 17:06:42;;;;;;;6.10;1.37;;;-1.70;99.90;196.50;224877.00;;;;4957838;29;20223;-91
2021/12/05 17:09:13;;;;;;;2.17;1.30;;;-1.80;99.90;196.50;224877.00;;;;4941725;29;20205;-92
2021/12/05 17:11:40;;;;;;;6.60;1.60;;;-1.80;99.90;196.50;224877.00;;;;4909525;29;20315;-90
2021/12/05 17:14:21;;;;;;;6.20;1.73;;;-1.80;99.90;196.50;224877.00;;;;4956650;29;20221;-90
2021/12/05 17:20:58;;;;;;;4.33;1.10;;;-1.90;99.90;196.50;224877.00;;;;4959268;29;20174;-91
2021/12/05 17:23:56;;;;;;;3.87;1.57;;;-1.80;99.90;196.50;224877.00;;;;4941546;29;20250;-90
2021/12/05 17:26:46;;;;;;;2.07;1.50;;;-1.80;99.90;196.50;224877.00;;;;4941947;28;20286;-91
2021/12/05 17:29:39;;;;;;;4.00;1.60;;;-1.60;99.90;196.50;224877.00;;;;4941255;29;20203;-93
2021/12/05 17:32:12;;;;;;;7.50;1.50;;;-1.60;99.90;196.50;224877.00;;;;4941332;29;20733;-91
2021/12/05 17:34:48;;;;;;;4.37;1.67;;;-1.50;99.90;196.50;224877.00;;;;4973046;28;20218;-91
2021/12/05 17:37:26;;;;;;;3.97;1.70;;;-1.50;1.40;196.50;224877.00;;;;4955569;29;20186;-90
2021/12/05 17:39:57;;;;;;;6.07;1.47;;;-1.50;1.00;196.50;224877.00;;;;4932020;29;20198;-90
2021/12/05 17:42:28;;;;;;;5.47;1.83;;;-1.40;1.00;196.50;224877.00;;;;4956063;28;20746;-91
2021/12/05 17:45:00;;;;;;;4.47;2.17;;;-1.40;1.00;196.50;224877.00;;;;4950621;29;20202;-90
2021/12/05 17:47:29;;;;;;;2.00;1.07;;;-1.30;1.00;196.50;224877.00;;;;4922912;29;20686;-94
2021/12/05 17:50:02;;;;;;;3.17;1.70;;;-1.20;1.00;196.50;224877.00;;;;4951448;29;20624;-92
2021/12/05 17:52:32;;;;;;;4.30;1.50;;;-1.20;1.00;196.50;224877.00;;;;4932142;29;20247;-91
2021/12/05 17:55:21;;;;;;;3.70;2.07;;;-1.20;1.00;196.50;224877.00;;;;4947879;29;20230;-93
2021/12/05 17:58:17;;;;;;;3.57;1.47;;;-1.20;1.00;196.50;224877.00;;;;4936326;29;20215;-94
2021/12/05 18:00:57;;;;;;;5.63;2.00;;;-1.10;1.00;196.50;224877.00;;;;4938388;29;20195;-93
2021/12/05 18:03:25;;;;;;;3.17;1.60;;;-1.00;1.00;196.50;224877.00;;;;4954122;29;20225;-93
2021/12/05 18:05:53;;;;;;;2.37;1.37;;;-1.00;1.00;196.50;224877.00;;;;4937873;29;20234;-94
2021/12/05 18:08:24;;;;;;;4.60;2.50;;;-0.90;1.00;196.50;224877.00;;;;4953859;28;20274;-91
2021/12/05 18:11:00;;;;;;;4.40;1.50;;;-0.80;1.00;196.50;224877.00;;;;4953431;28;20672;-93
2021/12/05 18:13:33;;;;;;;3.33;1.20;;;-0.70;1.00;196.50;224877.00;;;;4935358;28;20215;-90
2021/12/05 18:16:15;;;;;;;5.33;1.80;;;-0.70;1.00;196.50;224877.00;;;;4928118;29;20293;-93
2021/12/05 18:18:44;;;;;;;7.47;1.90;;;-0.70;1.00;196.50;224877.00;;;;4938046;29;20736;-92
2021/12/05 18:21:12;;;;;;;2.63;1.10;;;-0.60;1.00;196.50;224877.00;;;;4943190;29;20195;-92
2021/12/05 18:23:40;;;;;;;6.23;1.37;;;-0.60;1.00;196.50;224877.00;;;;4947234;28;20195;-93
2021/12/05 18:26:07;;;;;;;4.47;1.90;;;-0.60;1.00;196.50;224877.00;;;;4966819;28;20262;-90
2021/12/05 18:28:38;;;;;;;2.53;1.23;;;-0.60;1.00;196.50;224877.00;;;;4955959;28;20271;-92
2021/12/05 18:31:16;;;;;;;1.73;1.10;;;-0.70;1.00;196.50;224877.00;;;;4925033;29;20199;-93
2021/12/05 18:33:48;;;;;;;3.77;1.30;;;-0.60;1.00;196.50;224877.00;;;;4936749;29;20254;-93
2021/12/05 18:36:17;;;;;;;3.00;1.50;;;-0.60;1.00;196.50;224877.00;;;;4952370;28;20195;-92
2021/12/05 18:38:44;;;;;;;2.80;1.50;;;-0.60;1.00;196.50;224877.00;;;;4939921;29;20675;-93
2021/12/05 18:41:13;;;;;;;2.00;1.10;;;-0.60;1.00;196.50;224877.00;;;;4940481;29;20615;-93
2021/12/05 18:43:47;;;;;;;2.30;1.30;;;-0.60;1.00;196.50;224877.00;;;;4931716;29;20258;-91
2021/12/05 18:46:17;;;;;;;1.97;1.30;;;-0.50;1.00;196.50;224877.00;;;;4941635;29;20314;-95
2021/12/05 18:48:46;;;;;;;1.97;1.20;;;-0.50;1.00;196.50;224877.00;;;;4940241;29;20267;-95
2021/12/05 18:51:17;;;;;;;4.73;1.43;;;-0.40;1.00;196.50;224877.00;;;;4928464;29;20195;-94
2021/12/05 18:53:44;;;;;;;2.33;1.03;;;-0.40;1.00;196.50;224877.00;;;;4941221;29;20211;-93
2021/12/05 18:56:12;;;;;;;3.00;1.23;;;-0.40;1.00;196.50;224877.00;;;;4938287;28;20199;-94
2021/12/05 18:58:42;;;;;;;4.77;1.10;;;-0.40;1.00;196.50;224877.00;;;;4936003;29;20195;-94
2021/12/05 19:06:59;;;;;;;3.03;2.10;;;-0.30;1.00;196.50;224877.00;;;;4950404;29;20219;-93